Mineralnyye Vody Airport
URMM : now visible

Airfield :











YOU CAN JOIN US ON...

 
LOGIN :

Register | Disclaimer

   EN    FR    IT 

 









Legend :    VFR   Marginal VFR   IFR   Intensive IFR   Very Intensive IFR
Visi :
Ceiling :
>= 8 km
>= 3000ft
5 to 8 km
1000 to 3000 ft
1500m to 5 km
500 to 1000 ft
800 to 1500m
200 to 500 ft
< 800m
< 200 ft
Symbols :   Thunderstorms  Fog  Heavy snow  Heavy precipitations  Wind > 20 kt






- Airport Elevation : 1054 ft
- IATA code : MRV


URMM - Mineralnyye Vody

CURRENT METAR :
  • 301930Z 27006MPS 9999 -SHRA OVC032CB 10/08 Q1008 R30/290250 NOSIG RMK QFE728/0970

EXPIRED METARs :
  • 301900Z 26005MPS 9999 -SHRA OVC031CB 10/08 Q1008 R30/290250 NOSIG RMK QFE728/0970
  • 301830Z 27005MPS 9999 -SHRA OVC032CB 10/08 Q1007 R30/290250 NOSIG RMK QFE727/0970
  • 301800Z 27004MPS 9999 -SHRA OVC033CB 09/08 Q1007 R30/290250 NOSIG RMK QFE727/0970
  • 301730Z 27006MPS 9999 -SHRA OVC031CB 10/08 Q1007 R30/290250 NOSIG RMK QFE727/0970

TAF TAF URMM
Valid from the 30 at 18:00 until the 31 at 18:00 UTC


301700Z 3018/3118 27005G12MPS 9999 BKN020CB TX11/3112Z TN02/3103Z
TEMPO 3018/3112 29007G14MPS 3100 -SHRA BR BKN011 BKN020CB



MET'MAP, your aeronautical weather chart ! - Copyright ORBIFLY December 2007 - Disclaimer

ORBIFLY MET'MAP TEAM :

Programming & Development : Alexandra Zaïnal
Concept & original design : Baudouin d'Aumeries
Assistance for programming : Marc-Olivier Méhu
Technical & hardware support : Manuel Goepfert

Contact : metmap@orbifly.com




SOURCES & CREDITS :

   NOAA       Earth
Advisory